createdAt,value
2023-02-25T00:00:09.931Z,6.56
2023-02-25T00:01:09.921Z,6.55
2023-02-25T00:02:09.955Z,6.46
2023-02-25T00:03:09.912Z,6.50
2023-02-25T00:04:09.893Z,6.42
2023-02-25T00:05:09.876Z,6.34
2023-02-25T00:06:09.870Z,6.45
2023-02-25T00:07:09.858Z,6.47
2023-02-25T00:08:09.846Z,6.38
2023-02-25T00:09:09.841Z,6.35
2023-02-25T00:10:09.830Z,6.42
2023-02-25T00:11:09.822Z,6.37
2023-02-25T00:12:09.815Z,6.50
2023-02-25T00:13:19.134Z,6.45
2023-02-25T00:14:09.801Z,6.49
2023-02-25T00:15:09.781Z,6.40
2023-02-25T00:16:09.775Z,6.46
2023-02-25T00:17:09.854Z,6.43
2023-02-25T00:18:09.754Z,6.40
2023-02-25T00:19:09.729Z,6.38
2023-02-25T00:20:09.732Z,6.38
2023-02-25T00:21:09.762Z,6.45
2023-02-25T00:22:09.710Z,6.47
2023-02-25T00:23:09.698Z,6.49
2023-02-25T00:24:16.407Z,6.47
2023-02-25T00:25:09.683Z,6.38
2023-02-25T00:26:09.670Z,6.37
2023-02-25T00:27:09.655Z,6.38
2023-02-25T00:28:09.648Z,6.45
2023-02-25T00:29:09.639Z,6.38
2023-02-25T00:30:09.629Z,6.38
2023-02-25T00:31:09.725Z,6.37
2023-02-25T00:32:09.870Z,6.38
2023-02-25T00:33:09.606Z,6.43
2023-02-25T00:34:09.595Z,6.40
2023-02-25T00:35:09.581Z,6.37
2023-02-25T00:36:09.568Z,6.38
2023-02-25T00:37:09.703Z,6.43
2023-02-25T00:38:15.842Z,6.43
2023-02-25T00:39:09.632Z,6.43
2023-02-25T00:40:09.532Z,6.38
2023-02-25T00:41:09.526Z,6.37
2023-02-25T00:42:09.520Z,6.35
2023-02-25T00:43:09.497Z,6.35
2023-02-25T00:44:09.494Z,6.37
2023-02-25T00:45:09.493Z,6.37
2023-02-25T00:46:09.541Z,6.35
2023-02-25T00:47:09.464Z,6.43
2023-02-25T00:48:09.469Z,6.37
2023-02-25T00:49:09.447Z,6.35
2023-02-25T00:50:09.444Z,6.40
2023-02-25T00:51:09.450Z,6.28
2023-02-25T00:52:09.416Z,6.21
2023-02-25T00:53:09.400Z,6.24
2023-02-25T00:54:09.392Z,6.27
2023-02-25T00:55:09.383Z,6.31
2023-02-25T00:56:09.371Z,6.30
2023-02-25T00:57:09.363Z,6.37
2023-02-25T00:58:09.354Z,6.30
2023-02-25T00:59:09.346Z,6.37
2023-02-25T01:00:09.359Z,6.30
2023-02-25T01:01:09.368Z,6.21
2023-02-25T01:02:09.319Z,6.27
2023-02-25T01:03:09.385Z,6.27
2023-02-25T01:04:09.294Z,6.24
2023-02-25T01:05:09.284Z,6.27
2023-02-25T01:06:09.287Z,6.30
2023-02-25T01:07:09.266Z,6.27
2023-02-25T01:08:09.253Z,6.19
2023-02-25T01:09:09.243Z,6.30
2023-02-25T01:10:09.229Z,6.21
2023-02-25T01:11:09.217Z,6.24
2023-02-25T01:12:09.216Z,6.25
2023-02-25T01:13:09.205Z,6.25
2023-02-25T01:14:09.294Z,6.27
2023-02-25T01:15:09.180Z,6.27
2023-02-25T01:16:09.178Z,6.30
2023-02-25T01:17:09.156Z,6.27
2023-02-25T01:18:09.155Z,6.32
2023-02-25T01:19:09.150Z,6.27
2023-02-25T01:20:09.124Z,6.28
2023-02-25T01:21:09.115Z,6.19
2023-02-25T01:22:09.107Z,6.25
2023-02-25T01:23:09.114Z,6.16
2023-02-25T01:24:09.098Z,6.11
2023-02-25T01:25:09.077Z,6.13
2023-02-25T01:26:09.063Z,6.15
2023-02-25T01:27:09.055Z,6.13
2023-02-25T01:28:09.055Z,6.18
2023-02-25T01:29:09.046Z,6.12
2023-02-25T01:30:09.027Z,6.12
2023-02-25T01:31:09.101Z,6.16
2023-02-25T01:32:09.181Z,6.18
2023-02-25T01:33:08.997Z,6.21
2023-02-25T01:34:08.998Z,6.19
2023-02-25T01:35:08.976Z,6.27
2023-02-25T01:36:08.976Z,6.25
2023-02-25T01:37:08.957Z,6.24
2023-02-25T01:38:08.966Z,6.21
2023-02-25T01:39:10.010Z,6.27
2023-02-25T01:40:08.942Z,6.30
2023-02-25T01:41:08.924Z,6.30
2023-02-25T01:42:08.910Z,6.21
2023-02-25T01:43:08.903Z,6.12
2023-02-25T01:44:08.907Z,6.19
2023-02-25T01:45:08.874Z,6.18
2023-02-25T01:46:08.958Z,6.19
2023-02-25T01:47:08.864Z,6.24
2023-02-25T01:48:08.845Z,6.25
2023-02-25T01:49:08.845Z,6.28
2023-02-25T01:50:08.834Z,6.19
2023-02-25T01:51:08.809Z,6.15
2023-02-25T01:52:08.833Z,6.21
2023-02-25T01:53:08.804Z,6.13
2023-02-25T01:54:08.797Z,6.16
2023-02-25T01:55:08.776Z,6.19
2023-02-25T01:56:08.772Z,6.30
2023-02-25T01:57:08.819Z,6.15
2023-02-25T01:58:08.752Z,6.15
2023-02-25T01:59:08.733Z,6.19
2023-02-25T02:00:08.730Z,6.13
2023-02-25T02:01:08.780Z,6.13
2023-02-25T02:02:08.754Z,6.13
2023-02-25T02:03:08.704Z,6.15
2023-02-25T02:04:08.689Z,6.15
2023-02-25T02:05:08.671Z,6.05
2023-02-25T02:06:08.665Z,6.09
2023-02-25T02:07:08.657Z,6.05
2023-02-25T02:08:08.660Z,6.00
2023-02-25T02:09:08.632Z,6.00
2023-02-25T02:10:08.625Z,6.05
2023-02-25T02:11:08.608Z,6.09
2023-02-25T02:12:08.611Z,5.98
2023-02-25T02:13:08.598Z,6.06
2023-02-25T02:14:08.628Z,6.12
2023-02-25T02:15:08.573Z,6.09
2023-02-25T02:16:08.590Z,6.06
2023-02-25T02:17:08.551Z,6.11
2023-02-25T02:18:08.552Z,6.08
2023-02-25T02:19:08.534Z,6.06
2023-02-25T02:20:08.531Z,6.03
2023-02-25T02:21:08.512Z,6.09
2023-02-25T02:22:08.497Z,6.05
2023-02-25T02:23:08.493Z,6.09
2023-02-25T02:24:08.483Z,6.02
2023-02-25T02:25:08.478Z,6.12
2023-02-25T02:26:08.464Z,6.06
2023-02-25T02:27:08.454Z,6.02
2023-02-25T02:28:08.451Z,6.00
2023-02-25T02:29:08.434Z,6.03
2023-02-25T02:30:08.415Z,6.06
2023-02-25T02:31:08.508Z,6.03
2023-02-25T02:32:08.524Z,5.98
2023-02-25T02:33:08.389Z,6.05
2023-02-25T02:34:08.388Z,6.03
2023-02-25T02:35:08.374Z,5.95
2023-02-25T02:36:08.371Z,5.90
2023-02-25T02:37:08.346Z,5.90
2023-02-25T02:38:08.340Z,5.91
2023-02-25T02:39:08.328Z,5.90
2023-02-25T02:40:08.319Z,5.97
2023-02-25T02:41:08.315Z,5.90
2023-02-25T02:42:08.302Z,5.93
2023-02-25T02:43:08.289Z,5.85
2023-02-25T02:44:08.280Z,5.88
2023-02-25T02:45:08.265Z,5.91
2023-02-25T02:46:08.384Z,5.87
2023-02-25T02:47:08.246Z,5.94
2023-02-25T02:48:08.240Z,5.95
2023-02-25T02:49:08.239Z,5.98
2023-02-25T02:50:08.227Z,6.00
2023-02-25T02:51:08.208Z,5.84
2023-02-25T02:52:08.190Z,5.94
2023-02-25T02:53:08.182Z,5.90
2023-02-25T02:54:08.172Z,5.87
2023-02-25T02:55:08.164Z,5.91
2023-02-25T02:56:08.151Z,5.90
2023-02-25T02:57:08.141Z,5.85
2023-02-25T02:58:08.146Z,5.90
2023-02-25T02:59:08.176Z,6.06
2023-02-25T03:00:08.112Z,5.93
2023-02-25T03:01:08.156Z,5.97
2023-02-25T03:02:08.097Z,5.88
2023-02-25T03:03:08.080Z,5.85
2023-02-25T03:04:08.110Z,5.90
2023-02-25T03:05:08.064Z,5.85
2023-02-25T03:06:08.049Z,5.84
2023-02-25T03:07:08.037Z,5.90
2023-02-25T03:08:08.035Z,5.88
2023-02-25T03:09:08.014Z,5.94
2023-02-25T03:10:08.002Z,5.97
2023-02-25T03:11:07.994Z,5.98
2023-02-25T03:12:08.002Z,6.03
2023-02-25T03:13:07.981Z,6.03
2023-02-25T03:14:07.964Z,5.88
2023-02-25T03:15:07.958Z,5.98
2023-02-25T03:16:07.943Z,5.94
2023-02-25T03:17:07.929Z,5.95
2023-02-25T03:18:07.927Z,6.00
2023-02-25T03:19:07.930Z,6.08
2023-02-25T03:20:07.922Z,6.05
2023-02-25T03:21:07.891Z,5.84
2023-02-25T03:22:07.895Z,5.85
2023-02-25T03:23:07.876Z,5.95
2023-02-25T03:24:07.867Z,5.97
2023-02-25T03:25:07.852Z,5.93
2023-02-25T03:26:07.848Z,6.00
2023-02-25T03:27:07.842Z,5.85
2023-02-25T03:28:07.824Z,5.94
2023-02-25T03:29:07.821Z,5.85
2023-02-25T03:30:07.810Z,5.93
2023-02-25T03:31:07.834Z,5.88
2023-02-25T03:32:07.942Z,5.84
2023-02-25T03:33:07.774Z,5.90
2023-02-25T03:34:07.764Z,5.93
2023-02-25T03:35:07.762Z,5.95
2023-02-25T03:36:07.740Z,5.82
2023-02-25T03:37:07.738Z,5.93
2023-02-25T03:38:07.728Z,6.00
2023-02-25T03:39:07.723Z,5.95
2023-02-25T03:40:07.720Z,5.90
2023-02-25T03:41:07.694Z,5.85
2023-02-25T03:42:07.692Z,5.67
2023-02-25T03:43:08.486Z,5.76
2023-02-25T03:44:07.660Z,5.77
2023-02-25T03:45:07.656Z,5.72
2023-02-25T03:46:07.678Z,5.84
2023-02-25T03:47:07.679Z,5.80
2023-02-25T03:48:07.626Z,5.75
2023-02-25T03:49:07.632Z,5.73
2023-02-25T03:50:07.600Z,5.84
2023-02-25T03:51:07.597Z,5.90
2023-02-25T03:52:07.582Z,5.97
2023-02-25T03:53:07.576Z,5.90
2023-02-25T03:54:07.562Z,5.84
2023-02-25T03:55:07.551Z,5.87
2023-02-25T03:56:07.540Z,5.88
2023-02-25T03:57:07.520Z,5.84
2023-02-25T03:58:07.522Z,5.84
2023-02-25T03:59:07.510Z,5.87
2023-02-25T04:00:07.492Z,5.70
2023-02-25T04:01:07.490Z,5.75
2023-02-25T04:02:07.504Z,5.76
2023-02-25T04:03:07.466Z,5.73
2023-02-25T04:04:07.453Z,5.77
2023-02-25T04:05:07.442Z,5.82
2023-02-25T04:06:07.433Z,5.87
2023-02-25T04:07:07.420Z,5.90
2023-02-25T04:08:07.409Z,5.88
2023-02-25T04:09:07.410Z,5.88
2023-02-25T04:10:07.387Z,5.93
2023-02-25T04:11:07.394Z,5.87
2023-02-25T04:12:07.372Z,5.85
2023-02-25T04:13:07.359Z,5.80
2023-02-25T04:14:07.359Z,5.87
2023-02-25T04:15:07.344Z,5.82
2023-02-25T04:16:07.372Z,5.75
2023-02-25T04:17:07.318Z,5.79
2023-02-25T04:18:07.309Z,5.80
2023-02-25T04:19:07.298Z,5.88
2023-02-25T04:20:07.287Z,5.79
2023-02-25T04:21:07.278Z,5.80
2023-02-25T04:22:07.265Z,5.90
2023-02-25T04:23:07.259Z,5.87
2023-02-25T04:24:07.301Z,5.77
2023-02-25T04:25:07.238Z,5.73
2023-02-25T04:26:07.230Z,5.70
2023-02-25T04:27:07.230Z,5.72
2023-02-25T04:28:07.200Z,5.75
2023-02-25T04:29:07.194Z,5.75
2023-02-25T04:30:07.197Z,5.87
2023-02-25T04:31:07.346Z,5.79
2023-02-25T04:32:07.244Z,5.82
2023-02-25T04:33:07.155Z,5.75
2023-02-25T04:34:07.142Z,5.77
2023-02-25T04:35:07.131Z,5.76
2023-02-25T04:36:07.124Z,5.76
2023-02-25T04:37:07.117Z,5.76
2023-02-25T04:38:09.118Z,5.75
2023-02-25T04:39:07.124Z,5.75
2023-02-25T04:40:07.083Z,5.72
2023-02-25T04:41:07.073Z,5.69
2023-02-25T04:42:07.054Z,5.73
2023-02-25T04:43:07.054Z,5.75
2023-02-25T04:44:07.038Z,5.76
2023-02-25T04:45:07.027Z,5.79
2023-02-25T04:46:07.077Z,5.77
2023-02-25T04:47:07.011Z,5.75
2023-02-25T04:48:06.999Z,5.80
2023-02-25T04:49:06.988Z,5.73
2023-02-25T04:50:06.970Z,5.76
2023-02-25T04:51:06.966Z,5.72
2023-02-25T04:52:06.955Z,5.70
2023-02-25T04:53:06.949Z,5.76
2023-02-25T04:54:06.958Z,5.70
2023-02-25T04:55:06.933Z,5.72
2023-02-25T04:56:06.916Z,5.70
2023-02-25T04:57:06.905Z,5.73
2023-02-25T04:58:06.904Z,5.55
2023-02-25T04:59:06.900Z,5.51
2023-02-25T05:00:06.872Z,5.48
2023-02-25T05:01:06.862Z,5.50
2023-02-25T05:02:06.894Z,5.57
2023-02-25T05:03:06.850Z,5.52
2023-02-25T05:04:06.833Z,5.51
2023-02-25T05:05:06.851Z,5.55
2023-02-25T05:06:06.820Z,5.72
2023-02-25T05:07:06.806Z,5.65
2023-02-25T05:08:06.800Z,5.58
2023-02-25T05:09:09.276Z,5.66
2023-02-25T05:10:06.772Z,5.66
2023-02-25T05:11:06.762Z,5.57
2023-02-25T05:12:06.745Z,5.55
2023-02-25T05:13:06.747Z,5.51
2023-02-25T05:14:06.737Z,5.41
2023-02-25T05:15:06.723Z,5.52
2023-02-25T05:16:06.757Z,5.54
2023-02-25T05:17:06.698Z,5.54
2023-02-25T05:18:06.693Z,5.55
2023-02-25T05:19:06.675Z,5.51
2023-02-25T05:20:06.701Z,5.61
2023-02-25T05:21:06.667Z,5.65
2023-02-25T05:22:06.645Z,5.65
2023-02-25T05:23:06.636Z,5.55
2023-02-25T05:24:06.655Z,5.70
2023-02-25T05:25:06.611Z,5.57
2023-02-25T05:26:06.606Z,5.58
2023-02-25T05:27:06.607Z,5.66
2023-02-25T05:28:07.524Z,5.57
2023-02-25T05:29:06.573Z,5.59
2023-02-25T05:30:06.623Z,5.50
2023-02-25T05:31:06.662Z,5.54
2023-02-25T05:32:06.654Z,5.55
2023-02-25T05:33:06.611Z,5.50
2023-02-25T05:34:06.521Z,5.50
2023-02-25T05:35:06.520Z,5.52
2023-02-25T05:36:06.501Z,5.57
2023-02-25T05:37:06.489Z,5.66
2023-02-25T05:38:06.493Z,5.62
2023-02-25T05:39:06.491Z,5.70
2023-02-25T05:40:06.452Z,5.70
2023-02-25T05:41:06.466Z,5.73
2023-02-25T05:42:06.437Z,5.54
2023-02-25T05:43:06.444Z,5.54
2023-02-25T05:44:06.415Z,5.72
2023-02-25T05:45:06.411Z,5.67
2023-02-25T05:46:06.393Z,5.67
2023-02-25T05:47:06.436Z,5.73
2023-02-25T05:48:06.382Z,5.65
2023-02-25T05:49:06.363Z,5.54
2023-02-25T05:50:06.361Z,5.52
2023-02-25T05:51:06.346Z,5.58
2023-02-25T05:52:06.328Z,5.51
2023-02-25T05:53:06.331Z,5.55
2023-02-25T05:54:06.330Z,5.55
2023-02-25T05:55:06.308Z,5.48
2023-02-25T05:56:06.316Z,5.52
2023-02-25T05:57:06.284Z,5.50
2023-02-25T05:58:06.278Z,5.58
2023-02-25T05:59:06.276Z,5.70
2023-02-25T06:00:06.250Z,5.58
2023-02-25T06:01:06.237Z,5.66
2023-02-25T06:02:06.293Z,5.62
2023-02-25T06:03:06.278Z,5.69
2023-02-25T06:04:06.193Z,5.62
2023-02-25T06:05:06.210Z,5.66
2023-02-25T06:06:06.183Z,5.66
2023-02-25T06:07:06.174Z,5.66
2023-02-25T06:08:06.178Z,5.70
2023-02-25T06:09:06.155Z,5.76
2023-02-25T06:10:06.148Z,5.58
2023-02-25T06:11:06.136Z,5.61
2023-02-25T06:12:06.121Z,5.57
2023-02-25T06:13:06.118Z,5.54
2023-02-25T06:14:06.101Z,5.48
2023-02-25T06:15:06.100Z,5.57
2023-02-25T06:16:06.129Z,5.66
2023-02-25T06:17:06.067Z,5.69
2023-02-25T06:18:06.064Z,5.55
2023-02-25T06:19:06.056Z,5.73
2023-02-25T06:20:06.032Z,5.61
2023-02-25T06:21:06.024Z,5.73
2023-02-25T06:22:06.013Z,5.70
2023-02-25T06:23:06.007Z,5.58
2023-02-25T06:24:05.993Z,5.70
2023-02-25T06:25:05.989Z,5.69
2023-02-25T06:26:05.980Z,5.55
2023-02-25T06:27:05.951Z,5.67
2023-02-25T06:28:05.955Z,5.59
2023-02-25T06:29:05.946Z,5.65
2023-02-25T06:30:05.933Z,5.59
2023-02-25T06:31:05.968Z,5.66
2023-02-25T06:32:06.130Z,5.62
2023-02-25T06:33:05.922Z,5.65
2023-02-25T06:34:05.889Z,5.62
2023-02-25T06:35:05.882Z,5.62
2023-02-25T06:36:05.870Z,5.69
2023-02-25T06:37:05.866Z,5.73
2023-02-25T06:38:05.870Z,5.72
2023-02-25T06:39:05.841Z,5.82
2023-02-25T06:40:05.825Z,5.76
2023-02-25T06:41:05.830Z,5.75
2023-02-25T06:42:05.806Z,5.70
2023-02-25T06:43:05.806Z,5.80
2023-02-25T06:44:05.785Z,5.72
2023-02-25T06:45:05.783Z,5.77
2023-02-25T06:46:05.871Z,5.69
2023-02-25T06:47:05.757Z,5.77
2023-02-25T06:48:05.745Z,5.77
2023-02-25T06:49:05.732Z,5.67
2023-02-25T06:50:05.733Z,5.72
2023-02-25T06:51:05.718Z,5.77
2023-02-25T06:52:05.721Z,5.70
2023-02-25T06:53:05.694Z,5.75
2023-02-25T06:54:05.694Z,5.72
2023-02-25T06:55:05.687Z,5.69
2023-02-25T06:56:05.657Z,5.87
2023-02-25T06:57:05.648Z,5.70
2023-02-25T06:58:05.630Z,5.72
2023-02-25T06:59:05.646Z,5.73
2023-02-25T07:00:05.645Z,5.70
2023-02-25T07:01:05.649Z,5.76
2023-02-25T07:02:05.619Z,5.82
2023-02-25T07:03:05.594Z,5.84
2023-02-25T07:04:05.619Z,5.80
2023-02-25T07:05:05.589Z,5.85
2023-02-25T07:06:05.593Z,5.85
2023-02-25T07:07:05.551Z,5.75
2023-02-25T07:08:05.534Z,5.88
2023-02-25T07:09:05.529Z,5.85
2023-02-25T07:10:05.515Z,5.87
2023-02-25T07:11:05.510Z,5.72
2023-02-25T07:12:05.495Z,5.80
2023-02-25T07:13:05.475Z,5.76
2023-02-25T07:14:05.470Z,5.77
2023-02-25T07:15:05.468Z,5.75
2023-02-25T07:16:05.480Z,5.72
2023-02-25T07:17:05.451Z,5.75
2023-02-25T07:18:05.429Z,5.75
2023-02-25T07:19:05.433Z,5.91
2023-02-25T07:20:05.406Z,5.82
2023-02-25T07:21:05.408Z,5.87
2023-02-25T07:22:05.402Z,5.87
2023-02-25T07:23:05.386Z,5.90
2023-02-25T07:24:05.364Z,5.97
2023-02-25T07:25:05.450Z,6.02
2023-02-25T07:26:05.360Z,6.05
2023-02-25T07:27:05.346Z,6.06
2023-02-25T07:28:05.339Z,6.12
2023-02-25T07:29:05.316Z,6.13
2023-02-25T07:30:05.321Z,6.13
2023-02-25T07:31:05.370Z,5.95
2023-02-25T07:32:05.441Z,6.03
2023-02-25T07:33:06.053Z,5.98
2023-02-25T07:34:05.266Z,5.98
2023-02-25T07:35:05.265Z,6.06
2023-02-25T07:36:05.246Z,6.02
2023-02-25T07:37:05.238Z,5.97
2023-02-25T07:38:05.215Z,5.97
2023-02-25T07:39:05.218Z,5.87
2023-02-25T07:40:05.204Z,5.88
2023-02-25T07:41:05.203Z,5.85
2023-02-25T07:42:05.188Z,5.87
2023-02-25T07:43:05.183Z,5.94
2023-02-25T07:44:05.175Z,5.88
2023-02-25T07:45:05.155Z,5.85
2023-02-25T07:46:05.233Z,5.85
2023-02-25T07:47:05.135Z,5.84
2023-02-25T07:48:05.137Z,5.80
2023-02-25T07:49:05.116Z,5.87
2023-02-25T07:50:05.109Z,5.84
2023-02-25T07:51:05.108Z,5.90
2023-02-25T07:52:05.087Z,5.84
2023-02-25T07:53:05.092Z,5.90
2023-02-25T07:54:05.073Z,5.95
2023-02-25T07:55:05.055Z,5.97
2023-02-25T07:56:05.047Z,6.00
2023-02-25T07:57:05.041Z,5.93
2023-02-25T07:58:07.269Z,6.00
2023-02-25T07:59:05.057Z,6.02
2023-02-25T08:00:05.044Z,6.08
2023-02-25T08:01:04.999Z,6.09
2023-02-25T08:02:05.004Z,6.00
2023-02-25T08:03:04.972Z,6.00
2023-02-25T08:04:05.039Z,6.05
2023-02-25T08:05:04.945Z,6.05
2023-02-25T08:06:04.981Z,6.11
2023-02-25T08:07:04.975Z,6.08
2023-02-25T08:08:04.932Z,6.06
2023-02-25T08:09:04.919Z,6.08
2023-02-25T08:10:04.945Z,6.03
2023-02-25T08:11:04.892Z,6.03
2023-02-25T08:12:04.893Z,6.05
2023-02-25T08:13:04.872Z,6.02
2023-02-25T08:14:04.887Z,6.08
2023-02-25T08:15:04.852Z,6.06
2023-02-25T08:16:04.894Z,6.11
2023-02-25T08:17:04.821Z,6.13
2023-02-25T08:18:04.826Z,6.15
2023-02-25T08:19:04.808Z,6.09
2023-02-25T08:20:04.806Z,6.12
2023-02-25T08:21:04.800Z,6.12
2023-02-25T08:22:04.782Z,6.12
2023-02-25T08:23:04.778Z,6.15
2023-02-25T08:24:04.768Z,6.12
2023-02-25T08:25:04.751Z,6.12
2023-02-25T08:26:04.736Z,6.15
2023-02-25T08:27:04.730Z,6.13
2023-02-25T08:28:04.721Z,6.16
2023-02-25T08:29:04.704Z,6.18
2023-02-25T08:30:04.704Z,6.18
2023-02-25T08:31:04.839Z,6.11
2023-02-25T08:32:04.770Z,6.00
2023-02-25T08:33:04.772Z,6.09
2023-02-25T08:34:04.661Z,6.03
2023-02-25T08:35:04.644Z,6.11
2023-02-25T08:36:04.641Z,6.16
2023-02-25T08:37:04.628Z,6.16
2023-02-25T08:38:04.621Z,6.13
2023-02-25T08:39:04.616Z,6.24
2023-02-25T08:40:04.629Z,6.24
2023-02-25T08:41:04.587Z,6.27
2023-02-25T08:42:04.593Z,6.37
2023-02-25T08:43:04.571Z,6.31
2023-02-25T08:44:04.552Z,6.28
2023-02-25T08:45:04.554Z,6.30
2023-02-25T08:46:04.535Z,6.35
2023-02-25T08:47:04.582Z,6.40
2023-02-25T08:48:04.514Z,6.37
2023-02-25T08:49:04.512Z,6.35
2023-02-25T08:50:04.505Z,6.40
2023-02-25T08:51:04.489Z,6.40
2023-02-25T08:52:04.490Z,6.37
2023-02-25T08:53:04.469Z,6.38
2023-02-25T08:54:04.449Z,6.49
2023-02-25T08:55:04.458Z,6.42
2023-02-25T08:56:04.437Z,6.49
2023-02-25T08:57:04.426Z,6.42
2023-02-25T08:58:04.420Z,6.42
2023-02-25T08:59:04.401Z,6.53
2023-02-25T09:00:05.875Z,6.60
2023-02-25T09:01:04.479Z,6.52
2023-02-25T09:02:04.379Z,6.42
2023-02-25T09:03:04.368Z,6.38
2023-02-25T09:04:04.390Z,6.52
2023-02-25T09:05:04.335Z,6.56
2023-02-25T09:06:04.356Z,6.63
2023-02-25T09:07:04.323Z,6.68
2023-02-25T09:08:04.311Z,6.50
2023-02-25T09:09:04.300Z,6.60
2023-02-25T09:10:04.306Z,6.50
2023-02-25T09:11:04.286Z,6.56
2023-02-25T09:12:04.279Z,6.60
2023-02-25T09:13:04.258Z,6.65
2023-02-25T09:14:04.254Z,6.53
2023-02-25T09:15:04.242Z,6.52
2023-02-25T09:16:04.250Z,6.52
2023-02-25T09:17:04.224Z,6.52
2023-02-25T09:18:04.227Z,6.64
2023-02-25T09:19:04.203Z,6.64
2023-02-25T09:20:04.212Z,6.50
2023-02-25T09:21:04.194Z,6.53
2023-02-25T09:22:04.177Z,6.52
2023-02-25T09:23:04.180Z,6.65
2023-02-25T09:24:04.161Z,6.74
2023-02-25T09:25:04.150Z,6.68
2023-02-25T09:26:04.138Z,6.61
2023-02-25T09:27:04.143Z,6.64
2023-02-25T09:28:04.121Z,6.68
2023-02-25T09:29:04.107Z,6.67
2023-02-25T09:30:04.109Z,6.60
2023-02-25T09:31:04.180Z,6.65
2023-02-25T09:32:04.160Z,6.67
2023-02-25T09:33:04.214Z,6.52
2023-02-25T09:34:04.059Z,6.52
2023-02-25T09:35:04.047Z,6.57
2023-02-25T09:36:04.032Z,6.42
2023-02-25T09:37:04.033Z,6.30
2023-02-25T09:38:04.030Z,6.27
2023-02-25T09:39:04.010Z,6.24
2023-02-25T09:40:04.002Z,6.18
2023-02-25T09:41:04.006Z,6.24
2023-02-25T09:42:03.976Z,6.24
2023-02-25T09:43:03.972Z,6.21
2023-02-25T09:44:03.962Z,6.16
2023-02-25T09:45:03.952Z,6.19
2023-02-25T09:46:04.074Z,6.25
2023-02-25T09:47:03.938Z,6.28
2023-02-25T09:48:03.956Z,6.12
2023-02-25T09:49:03.908Z,6.15
2023-02-25T09:50:03.906Z,6.13
2023-02-25T09:51:03.892Z,6.25
2023-02-25T09:52:03.888Z,6.18
2023-02-25T09:53:03.873Z,6.28
2023-02-25T09:54:03.854Z,6.24
2023-02-25T09:55:03.867Z,6.43
2023-02-25T09:56:03.857Z,6.30
2023-02-25T09:57:03.832Z,6.32
2023-02-25T09:58:03.836Z,6.37
2023-02-25T09:59:03.819Z,6.35
2023-02-25T10:00:03.810Z,6.42
2023-02-25T10:01:03.797Z,6.35
2023-02-25T10:02:03.873Z,6.27
2023-02-25T10:03:03.991Z,6.31
2023-02-25T10:04:03.764Z,6.30
2023-02-25T10:05:03.752Z,6.19
2023-02-25T10:06:03.750Z,6.27
2023-02-25T10:07:03.761Z,6.24
2023-02-25T10:08:03.733Z,6.30
2023-02-25T10:09:03.722Z,6.19
2023-02-25T10:10:03.712Z,6.35
2023-02-25T10:11:03.740Z,6.31
2023-02-25T10:12:03.689Z,6.32
2023-02-25T10:13:03.674Z,6.43
2023-02-25T10:14:03.670Z,6.38
2023-02-25T10:15:03.681Z,6.35
2023-02-25T10:16:03.661Z,6.32
2023-02-25T10:17:03.691Z,6.37
2023-02-25T10:18:03.638Z,6.34
2023-02-25T10:19:03.630Z,6.42
2023-02-25T10:20:03.604Z,6.45
2023-02-25T10:21:03.601Z,6.56
2023-02-25T10:22:03.592Z,6.50
2023-02-25T10:23:03.588Z,6.42
2023-02-25T10:24:03.569Z,6.46
2023-02-25T10:25:03.556Z,6.60
2023-02-25T10:26:03.562Z,6.49
2023-02-25T10:27:03.540Z,6.50
2023-02-25T10:28:03.539Z,6.63
2023-02-25T10:29:03.519Z,6.67
2023-02-25T10:30:03.514Z,6.53
2023-02-25T10:31:03.617Z,6.68
2023-02-25T10:32:03.616Z,6.67
2023-02-25T10:33:03.477Z,6.67
2023-02-25T10:34:04.031Z,6.67
2023-02-25T10:35:03.470Z,6.64
2023-02-25T10:36:03.462Z,6.55
2023-02-25T10:37:03.439Z,6.65
2023-02-25T10:38:03.422Z,6.68
2023-02-25T10:39:03.421Z,6.70
2023-02-25T10:40:04.638Z,6.68
2023-02-25T10:41:03.401Z,6.65
2023-02-25T10:42:03.399Z,6.65
2023-02-25T10:43:03.392Z,6.65
2023-02-25T10:44:03.378Z,6.71
2023-02-25T10:45:03.362Z,6.68
2023-02-25T10:46:03.504Z,6.79
2023-02-25T10:47:03.343Z,6.78
2023-02-25T10:48:03.332Z,6.64
2023-02-25T10:49:03.337Z,6.70
2023-02-25T10:50:03.310Z,6.63
2023-02-25T10:51:03.312Z,6.75
2023-02-25T10:52:03.511Z,6.75
2023-02-25T10:53:03.303Z,6.74
2023-02-25T10:54:03.292Z,6.67
2023-02-25T10:55:03.268Z,6.78
2023-02-25T10:56:03.255Z,6.89
2023-02-25T10:57:03.245Z,7.03
2023-02-25T10:58:03.245Z,7.15
2023-02-25T10:59:03.228Z,7.46
2023-02-25T11:00:03.207Z,7.69
2023-02-25T11:01:03.242Z,7.69
2023-02-25T11:02:03.429Z,7.92
2023-02-25T11:03:03.195Z,8.01
2023-02-25T11:04:03.215Z,8.01
2023-02-25T11:05:03.182Z,8.09
2023-02-25T11:06:03.172Z,8.10
2023-02-25T11:07:03.161Z,7.86
2023-02-25T11:08:03.158Z,7.84
2023-02-25T11:09:03.139Z,7.78
2023-02-25T11:10:03.143Z,7.88
2023-02-25T11:11:03.139Z,7.81
2023-02-25T11:12:03.124Z,7.92
2023-02-25T11:13:03.157Z,7.94
2023-02-25T11:14:03.102Z,7.94
2023-02-25T11:15:03.088Z,7.98
2023-02-25T11:16:03.112Z,8.04
2023-02-25T11:17:03.076Z,8.12
2023-02-25T11:18:03.075Z,7.98
2023-02-25T11:19:03.065Z,8.06
2023-02-25T11:20:03.058Z,8.13
2023-02-25T11:21:03.076Z,8.23
2023-02-25T11:22:03.034Z,8.01
2023-02-25T11:23:03.038Z,8.09
2023-02-25T11:24:03.029Z,8.05
2023-02-25T11:25:03.016Z,8.17
2023-02-25T11:26:03.036Z,8.05
2023-02-25T11:27:03.000Z,7.96
2023-02-25T11:28:03.000Z,7.91
2023-02-25T11:29:02.992Z,7.87
2023-02-25T11:30:02.985Z,7.80
2023-02-25T11:31:03.094Z,7.92
2023-02-25T11:32:03.050Z,7.71
2023-02-25T11:33:02.947Z,7.50
2023-02-25T11:34:02.963Z,7.49
2023-02-25T11:35:02.986Z,7.44
2023-02-25T11:36:02.945Z,7.29
2023-02-25T11:37:02.929Z,7.22
2023-02-25T11:38:02.911Z,7.33
2023-02-25T11:39:02.913Z,7.29
2023-02-25T11:40:02.911Z,7.29
2023-02-25T11:41:02.890Z,7.08
2023-02-25T11:42:02.879Z,7.10
2023-02-25T11:43:02.886Z,6.89
2023-02-25T11:44:03.230Z,6.86
2023-02-25T11:45:02.895Z,6.68
2023-02-25T11:46:02.914Z,6.35
2023-02-25T11:47:02.836Z,6.32
2023-02-25T11:48:02.837Z,6.24
2023-02-25T11:49:02.816Z,6.16
2023-02-25T11:50:02.817Z,6.13
2023-02-25T11:51:02.798Z,5.85
2023-02-25T11:52:02.788Z,5.62
2023-02-25T11:53:02.784Z,5.59
2023-02-25T11:54:02.773Z,5.62
2023-02-25T11:55:02.773Z,5.52
2023-02-25T11:56:02.748Z,5.44
2023-02-25T11:57:02.755Z,5.37
2023-02-25T11:58:02.737Z,5.61
2023-02-25T11:59:02.732Z,5.58
2023-02-25T12:00:02.736Z,5.65
2023-02-25T12:01:02.722Z,5.67
2023-02-25T12:02:02.703Z,5.62
2023-02-25T12:03:03.523Z,5.65
2023-02-25T12:04:02.701Z,5.69
2023-02-25T12:05:02.691Z,5.72
2023-02-25T12:06:02.702Z,5.76
2023-02-25T12:07:02.653Z,5.77
2023-02-25T12:08:13.338Z,5.82
2023-02-25T12:09:02.625Z,5.84
2023-02-25T12:10:02.611Z,5.88
2023-02-25T12:11:02.620Z,6.12
2023-02-25T12:12:02.594Z,6.27
2023-02-25T12:13:02.589Z,6.35
2023-02-25T12:14:02.570Z,6.42
2023-02-25T12:15:02.569Z,6.55
2023-02-25T12:16:02.575Z,6.52
2023-02-25T12:17:02.554Z,6.57
2023-02-25T12:18:02.540Z,6.55
2023-02-25T12:19:04.020Z,6.40
2023-02-25T12:20:02.522Z,6.53
2023-02-25T12:21:02.514Z,6.42
2023-02-25T12:22:02.503Z,6.43
2023-02-25T12:23:02.488Z,6.37
2023-02-25T12:24:02.485Z,6.42
2023-02-25T12:25:02.476Z,6.45
2023-02-25T12:26:02.463Z,6.38
2023-02-25T12:27:02.460Z,6.61
2023-02-25T12:28:02.441Z,6.56
2023-02-25T12:29:02.433Z,6.63
2023-02-25T12:30:02.422Z,6.70
2023-02-25T12:31:02.454Z,6.70
2023-02-25T12:32:02.484Z,6.86
2023-02-25T12:33:02.401Z,7.15
2023-02-25T12:34:02.391Z,7.33
2023-02-25T12:35:02.394Z,7.37
2023-02-25T12:36:02.373Z,7.71
2023-02-25T12:37:02.359Z,7.84
2023-02-25T12:38:02.362Z,8.20
2023-02-25T12:39:02.357Z,8.37
2023-02-25T12:40:02.330Z,8.49
2023-02-25T12:41:02.336Z,8.35
2023-02-25T12:42:02.316Z,8.55
2023-02-25T12:43:02.316Z,8.62
2023-02-25T12:44:02.305Z,9.03
2023-02-25T12:45:02.304Z,9.06
2023-02-25T12:46:02.348Z,8.80
2023-02-25T12:47:02.298Z,8.56
2023-02-25T12:48:02.260Z,8.49
2023-02-25T12:49:02.275Z,8.29
2023-02-25T12:50:02.273Z,8.28
2023-02-25T12:51:02.249Z,8.26
2023-02-25T12:52:02.243Z,7.87
2023-02-25T12:53:02.316Z,8.05
2023-02-25T12:54:02.225Z,8.02
2023-02-25T12:55:02.230Z,8.19
2023-02-25T12:56:02.212Z,8.29
2023-02-25T12:57:02.212Z,8.31
2023-02-25T12:58:02.209Z,8.34
2023-02-25T12:59:02.207Z,8.49
2023-02-25T13:00:02.173Z,8.13
2023-02-25T13:01:02.239Z,8.02
2023-02-25T13:02:02.178Z,8.02
2023-02-25T13:03:02.162Z,8.04
2023-02-25T13:04:02.208Z,8.04
2023-02-25T13:05:02.158Z,8.12
2023-02-25T13:06:02.152Z,8.12
2023-02-25T13:07:02.141Z,8.13
2023-02-25T13:08:02.125Z,8.09
2023-02-25T13:09:02.135Z,8.09
2023-02-25T13:10:02.112Z,8.04
2023-02-25T13:11:02.114Z,7.81
2023-02-25T13:12:11.405Z,7.55
2023-02-25T13:13:02.103Z,7.31
2023-02-25T13:14:02.082Z,7.11
2023-02-25T13:15:02.085Z,7.10
2023-02-25T13:16:02.073Z,7.16
2023-02-25T13:17:02.063Z,7.36
2023-02-25T13:18:02.059Z,7.42